Time;durP1;ratioP1;P1;durP2;ratioP2;P2;SDS_P1;SDS_P2;PMS_P1;PMS_P2;Temp;Humidity;BMP_temperature;BMP_pressure;BME280_temperature;BME280_humidity;BME280_pressure;Samples;Min_cycle;Max_cycle;Signal;HPM_P1;HPM_P2
2021/11/06 00:00:39;;;;;;;5.28;4.68;;;23.60;38.40;;;;;;5025740;28;20396;-57
2021/11/06 00:03:06;;;;;;;5.05;4.47;;;23.60;38.40;;;;;;5024457;28;20057;-59
2021/11/06 00:05:34;;;;;;;6.93;5.05;;;23.60;38.40;;;;;;5025101;28;20251;-57
2021/11/06 00:08:02;;;;;;;7.38;4.95;;;23.60;38.40;;;;;;5021148;28;20473;-57
2021/11/06 00:10:30;;;;;;;8.18;4.82;;;23.60;38.40;;;;;;5032067;28;20056;-57
2021/11/06 00:12:57;;;;;;;6.38;4.68;;;23.60;38.40;;;;;;5044606;28;20139;-57
2021/11/06 00:15:24;;;;;;;5.43;4.63;;;23.60;38.50;;;;;;5045972;28;20774;-57
2021/11/06 00:17:51;;;;;;;5.38;4.57;;;23.60;38.40;;;;;;5039534;28;20113;-57
2021/11/06 00:20:18;;;;;;;6.70;4.80;;;23.60;38.50;;;;;;5020390;28;20081;-57
2021/11/06 00:22:46;;;;;;;5.28;3.83;;;23.60;38.50;;;;;;5024592;28;20328;-57
2021/11/06 00:25:14;;;;;;;5.97;4.30;;;23.60;38.50;;;;;;5024304;28;20053;-57
2021/11/06 00:27:44;;;;;;;4.80;4.05;;;23.60;38.50;;;;;;5024181;28;20277;-57
2021/11/06 00:30:11;;;;;;;5.32;4.80;;;23.60;38.50;;;;;;5017517;28;20100;-58
2021/11/06 00:32:39;;;;;;;6.05;4.47;;;23.60;38.50;;;;;;5024809;28;20045;-57
2021/11/06 00:35:08;;;;;;;6.15;4.20;;;23.60;38.50;;;;;;5022517;28;20045;-57
2021/11/06 00:37:39;;;;;;;6.30;4.65;;;23.60;38.50;;;;;;5024552;28;20177;-57
2021/11/06 00:40:09;;;;;;;6.82;4.70;;;23.60;38.50;;;;;;5018126;28;20084;-57
2021/11/06 00:42:37;;;;;;;4.90;3.90;;;23.60;38.60;;;;;;5026034;28;20134;-57
2021/11/06 00:45:06;;;;;;;5.22;4.18;;;23.50;38.50;;;;;;5028054;28;20053;-57
2021/11/06 00:47:34;;;;;;;5.57;4.13;;;23.50;38.60;;;;;;5027903;28;20100;-57
2021/11/06 00:50:02;;;;;;;5.82;4.47;;;23.50;38.60;;;;;;5033473;28;20044;-56
2021/11/06 00:52:29;;;;;;;4.63;4.10;;;23.50;38.70;;;;;;5048133;28;20071;-57
2021/11/06 00:54:56;;;;;;;5.97;4.10;;;23.50;38.70;;;;;;5047551;28;20052;-57
2021/11/06 00:57:23;;;;;;;4.47;3.72;;;23.50;38.70;;;;;;5047207;28;20596;-57
2021/11/06 00:59:50;;;;;;;5.53;4.43;;;23.50;38.70;;;;;;5032223;28;20057;-57
2021/11/06 01:02:18;;;;;;;8.00;4.47;;;23.50;38.70;;;;;;5027450;28;20060;-57
2021/11/06 01:04:45;;;;;;;5.72;4.40;;;23.50;38.70;;;;;;5026985;28;20755;-57
2021/11/06 01:07:12;;;;;;;5.15;4.18;;;23.50;38.70;;;;;;5026468;28;20151;-57
2021/11/06 01:09:39;;;;;;;4.45;3.67;;;23.50;38.70;;;;;;5033813;28;20632;-58
2021/11/06 01:12:06;;;;;;;5.22;4.30;;;23.50;38.70;;;;;;5046319;28;20548;-57
2021/11/06 01:14:34;;;;;;;5.53;3.75;;;23.50;38.70;;;;;;5045602;28;20060;-57
2021/11/06 01:17:02;;;;;;;4.65;3.88;;;23.50;38.70;;;;;;5046627;28;20488;-58
2021/11/06 01:19:29;;;;;;;4.25;3.85;;;23.50;38.70;;;;;;5023697;28;20051;-58
2021/11/06 01:21:57;;;;;;;5.40;4.45;;;23.50;38.70;;;;;;5026588;28;20399;-57
2021/11/06 01:24:25;;;;;;;6.00;4.30;;;23.50;38.70;;;;;;5026637;28;20602;-58
2021/11/06 01:26:53;;;;;;;5.07;4.10;;;23.50;38.70;;;;;;5026430;28;20665;-57
2021/11/06 01:29:20;;;;;;;5.90;4.13;;;23.50;38.70;;;;;;5023479;28;20075;-57
2021/11/06 01:31:48;;;;;;;4.70;3.78;;;23.50;38.70;;;;;;5045048;28;20137;-58
2021/11/06 01:34:15;;;;;;;5.38;4.05;;;23.50;38.70;;;;;;5046302;28;20135;-57
2021/11/06 01:36:42;;;;;;;6.53;4.32;;;23.60;38.70;;;;;;5046546;28;20048;-57
2021/11/06 01:39:09;;;;;;;4.43;3.85;;;23.50;38.70;;;;;;5037574;28;20167;-57
2021/11/06 01:41:36;;;;;;;5.70;3.70;;;23.50;38.70;;;;;;5044117;28;20359;-57
2021/11/06 01:44:04;;;;;;;4.82;4.15;;;23.50;38.70;;;;;;5045293;28;20074;-57
2021/11/06 01:46:32;;;;;;;4.90;4.00;;;23.50;38.70;;;;;;5042371;28;20123;-58
2021/11/06 01:48:59;;;;;;;4.72;4.10;;;23.50;38.70;;;;;;5029041;28;20933;-57
2021/11/06 01:51:26;;;;;;;5.22;4.32;;;23.50;38.70;;;;;;5025258;28;20107;-57
2021/11/06 01:53:54;;;;;;;4.40;3.80;;;23.50;38.70;;;;;;5022937;28;20088;-58
2021/11/06 01:56:21;;;;;;;4.05;3.55;;;23.50;38.70;;;;;;5025409;28;20490;-58
2021/11/06 01:58:49;;;;;;;5.13;3.95;;;23.50;38.60;;;;;;5020930;28;20506;-57
2021/11/06 02:01:17;;;;;;;4.15;3.63;;;23.50;38.70;;;;;;5039770;28;20142;-58
2021/11/06 02:03:45;;;;;;;4.80;4.10;;;23.50;38.70;;;;;;5045605;28;20064;-57
2021/11/06 02:06:13;;;;;;;4.45;3.50;;;23.50;38.70;;;;;;5045391;28;20079;-57
2021/11/06 02:08:43;;;;;;;3.85;3.45;;;23.50;38.70;;;;;;5032250;28;20524;-57
2021/11/06 02:11:10;;;;;;;4.18;3.38;;;23.50;38.70;;;;;;5020807;28;20207;-57
2021/11/06 02:13:37;;;;;;;4.72;3.63;;;23.50;38.70;;;;;;5025437;28;20585;-57
2021/11/06 02:16:04;;;;;;;4.25;3.85;;;23.50;38.70;;;;;;5024745;28;20099;-57
2021/11/06 02:18:31;;;;;;;5.05;3.85;;;23.50;38.70;;;;;;5024383;28;20080;-57
2021/11/06 02:21:02;;;;;;;4.53;3.65;;;23.50;38.80;;;;;;5022514;28;20417;-57
2021/11/06 02:23:32;;;;;;;;;;;23.50;38.80;;;;;;5025589;28;20148;-58
2021/11/06 02:25:59;;;;;;;4.18;3.63;;;23.50;38.80;;;;;;5025228;28;19924;-57
2021/11/06 02:28:57;;;;;;;3.85;3.45;;;23.50;38.80;;;;;;5019676;28;20068;-57
2021/11/06 02:31:25;;;;;;;3.78;3.30;;;23.50;38.80;;;;;;5022160;28;20061;-58
2021/11/06 02:33:53;;;;;;;5.97;3.92;;;23.50;38.80;;;;;;5024397;28;20530;-57
2021/11/06 02:36:20;;;;;;;4.25;3.30;;;23.40;38.80;;;;;;5023616;28;20114;-58
2021/11/06 02:38:48;;;;;;;4.55;3.70;;;23.50;38.90;;;;;;5024476;28;20055;-58
2021/11/06 02:41:15;;;;;;;3.95;3.17;;;23.50;38.90;;;;;;5040642;28;20079;-57
2021/11/06 02:43:43;;;;;;;4.47;3.42;;;23.50;38.90;;;;;;5044633;28;20063;-57
2021/11/06 02:46:10;;;;;;;4.25;3.47;;;23.40;38.80;;;;;;5044299;28;20400;-57
2021/11/06 02:48:37;;;;;;;5.18;3.17;;;23.40;38.80;;;;;;5037103;28;20139;-57
2021/11/06 02:51:05;;;;;;;3.92;3.05;;;23.50;38.90;;;;;;5022952;28;20179;-57
2021/11/06 02:53:32;;;;;;;4.05;3.33;;;23.40;38.80;;;;;;5024885;28;20053;-58
2021/11/06 02:55:59;;;;;;;3.70;3.25;;;23.40;38.90;;;;;;5024163;28;20056;-57
2021/11/06 02:58:27;;;;;;;5.55;3.75;;;23.40;38.90;;;;;;5018691;28;20139;-58
2021/11/06 03:00:54;;;;;;;4.32;3.35;;;23.40;38.90;;;;;;5041470;28;20353;-57
2021/11/06 03:03:22;;;;;;;3.83;3.35;;;23.50;38.90;;;;;;5044655;28;20137;-57
2021/11/06 03:05:49;;;;;;;4.10;3.33;;;23.50;38.90;;;;;;5042758;28;20044;-58
2021/11/06 03:08:16;;;;;;;3.90;2.85;;;23.40;38.80;;;;;;5040011;28;20080;-58
2021/11/06 03:10:43;;;;;;;3.72;2.97;;;23.50;38.90;;;;;;5021085;28;20079;-58
2021/11/06 03:13:11;;;;;;;3.70;3.00;;;23.50;38.90;;;;;;5024312;28;20528;-57
2021/11/06 03:15:38;;;;;;;3.47;3.08;;;23.40;38.80;;;;;;5023765;28;20081;-58
2021/11/06 03:18:05;;;;;;;3.88;3.20;;;23.50;38.80;;;;;;5023815;28;20498;-58
2021/11/06 03:20:32;;;;;;;3.72;2.70;;;23.50;38.90;;;;;;5021794;28;20056;-58
2021/11/06 03:23:00;;;;;;;4.30;3.38;;;23.50;38.80;;;;;;5023802;28;20057;-58
2021/11/06 03:25:28;;;;;;;5.40;3.47;;;23.50;38.80;;;;;;5024148;28;20136;-58
2021/11/06 03:27:56;;;;;;;3.95;2.95;;;23.50;38.80;;;;;;5023002;28;20739;-58
2021/11/06 03:30:24;;;;;;;3.65;3.17;;;23.50;38.80;;;;;;5020229;28;20057;-58
2021/11/06 03:32:51;;;;;;;4.03;3.38;;;23.50;38.80;;;;;;5023745;28;20088;-58
2021/11/06 03:35:19;;;;;;;3.33;3.00;;;23.50;38.80;;;;;;5024319;28;20053;-58
2021/11/06 03:37:46;;;;;;;3.08;2.47;;;23.50;38.80;;;;;;5023003;28;20146;-58
2021/11/06 03:40:13;;;;;;;3.22;2.92;;;23.50;38.70;;;;;;5024550;28;20063;-58
2021/11/06 03:42:41;;;;;;;3.10;2.80;;;23.50;38.70;;;;;;5043413;28;20052;-58
2021/11/06 03:45:10;;;;;;;2.58;2.38;;;23.50;38.70;;;;;;5043996;28;20568;-58
2021/11/06 03:47:37;;;;;;;2.70;2.50;;;23.50;38.70;;;;;;5042876;28;20084;-57
2021/11/06 03:50:07;;;;;;;3.22;2.40;;;23.50;38.60;;;;;;5026648;28;20106;-57
2021/11/06 03:52:34;;;;;;;2.70;2.45;;;23.50;38.60;;;;;;5043637;28;20052;-58
2021/11/06 03:55:03;;;;;;;2.92;2.63;;;23.60;38.70;;;;;;5044245;28;20610;-58
2021/11/06 03:57:30;;;;;;;3.30;2.70;;;23.60;38.60;;;;;;5043378;28;20056;-58
2021/11/06 03:59:57;;;;;;;3.00;2.70;;;23.60;38.60;;;;;;5022708;28;20163;-58
2021/11/06 04:02:25;;;;;;;3.38;2.60;;;23.60;38.60;;;;;;5023401;28;20083;-58
2021/11/06 04:04:52;;;;;;;4.30;2.85;;;23.60;38.60;;;;;;5022489;28;20154;-57
2021/11/06 04:07:19;;;;;;;2.60;2.28;;;23.60;38.60;;;;;;5023425;28;20559;-57
2021/11/06 04:09:46;;;;;;;2.70;2.35;;;23.60;38.50;;;;;;5020726;28;20053;-58
2021/11/06 04:12:13;;;;;;;2.78;2.47;;;23.60;38.50;;;;;;5023524;28;20114;-57
2021/11/06 04:14:40;;;;;;;2.95;2.67;;;23.60;38.50;;;;;;5023930;28;20142;-57
2021/11/06 04:17:07;;;;;;;3.15;2.47;;;23.60;38.50;;;;;;5025413;28;20233;-58
2021/11/06 04:19:35;;;;;;;3.40;2.92;;;23.60;38.60;;;;;;5029373;28;20080;-57
2021/11/06 04:22:02;;;;;;;2.58;2.33;;;23.60;38.50;;;;;;5045213;28;20083;-59
2021/11/06 04:24:29;;;;;;;2.97;2.28;;;23.60;38.60;;;;;;5047249;28;20084;-58
2021/11/06 04:26:56;;;;;;;3.17;2.53;;;23.60;38.60;;;;;;5046965;28;20075;-58
2021/11/06 04:29:24;;;;;;;3.00;2.70;;;23.60;38.60;;;;;;5023940;28;20057;-58
2021/11/06 04:31:55;;;;;;;3.60;2.53;;;23.60;38.60;;;;;;5025229;28;20581;-58
2021/11/06 04:34:22;;;;;;;2.95;2.47;;;23.60;38.60;;;;;;5026863;28;20268;-58
2021/11/06 04:36:50;;;;;;;2.50;2.28;;;23.60;38.60;;;;;;5026745;28;20140;-57
2021/11/06 04:39:17;;;;;;;2.78;2.22;;;23.60;38.60;;;;;;5029488;28;20049;-58
2021/11/06 04:41:44;;;;;;;2.10;1.90;;;23.60;38.50;;;;;;5027000;28;20094;-57
2021/11/06 04:44:11;;;;;;;2.30;2.10;;;23.60;38.60;;;;;;5027153;28;20740;-57
2021/11/06 04:46:38;;;;;;;2.85;2.25;;;23.60;38.60;;;;;;5026819;28;20122;-58
2021/11/06 04:49:06;;;;;;;2.20;2.00;;;23.60;38.60;;;;;;5024320;28;20504;-58
2021/11/06 04:51:33;;;;;;;2.95;2.20;;;23.60;38.50;;;;;;5026608;28;20053;-58
2021/11/06 04:54:00;;;;;;;2.10;1.90;;;23.60;38.50;;;;;;5026454;28;20056;-58
2021/11/06 04:56:28;;;;;;;2.45;2.25;;;23.60;38.50;;;;;;5027263;28;20577;-57
2021/11/06 04:58:55;;;;;;;2.28;2.08;;;23.60;38.40;;;;;;5020507;28;20140;-58
2021/11/06 05:01:22;;;;;;;2.42;2.22;;;23.60;38.40;;;;;;5025768;28;20137;-58
2021/11/06 05:03:49;;;;;;;2.80;2.60;;;23.60;38.40;;;;;;5044883;28;20552;-57
2021/11/06 05:06:17;;;;;;;2.75;2.03;;;23.60;38.40;;;;;;5046738;28;20127;-57
2021/11/06 05:08:44;;;;;;;3.03;2.13;;;23.60;38.40;;;;;;5037174;28;20084;-57
2021/11/06 05:11:11;;;;;;;2.20;2.00;;;23.60;38.40;;;;;;5024062;28;20076;-58
2021/11/06 05:13:38;;;;;;;2.13;1.90;;;23.60;38.90;;;;;;5024344;28;20167;-57
2021/11/06 05:16:05;;;;;;;3.17;1.88;;;23.60;38.40;;;;;;5026430;28;20080;-57
2021/11/06 05:18:33;;;;;;;1.75;1.63;;;23.60;38.40;;;;;;5018755;28;20085;-58
2021/11/06 05:21:00;;;;;;;2.42;2.10;;;23.60;38.40;;;;;;5039967;28;20147;-58
2021/11/06 05:23:27;;;;;;;2.88;2.13;;;23.60;38.40;;;;;;5045638;28;20693;-57
2021/11/06 05:25:54;;;;;;;3.05;1.92;;;23.60;38.40;;;;;;5046292;28;20105;-57
2021/11/06 05:28:22;;;;;;;2.22;2.03;;;23.60;38.40;;;;;;5041350;28;20129;-57
2021/11/06 05:30:49;;;;;;;1.80;1.70;;;23.60;38.40;;;;;;5043712;28;20048;-58
2021/11/06 05:33:16;;;;;;;2.20;1.90;;;23.60;38.40;;;;;;5045345;28;20152;-58
2021/11/06 05:35:43;;;;;;;2.15;1.95;;;23.60;38.40;;;;;;5046101;28;20056;-57
2021/11/06 05:38:10;;;;;;;1.80;1.70;;;23.60;38.50;;;;;;5039317;28;20148;-58
2021/11/06 05:40:38;;;;;;;2.28;2.08;;;23.60;38.40;;;;;;5021884;28;20144;-58
2021/11/06 05:43:05;;;;;;;2.20;1.92;;;23.60;38.40;;;;;;5025723;28;21156;-58
2021/11/06 05:45:32;;;;;;;2.10;1.67;;;23.60;38.40;;;;;;5025394;28;20099;-57
2021/11/06 05:47:59;;;;;;;1.92;1.77;;;23.60;38.40;;;;;;5023799;28;20143;-57
2021/11/06 05:50:26;;;;;;;2.00;1.90;;;23.50;38.40;;;;;;5024758;28;20160;-58
2021/11/06 05:52:54;;;;;;;2.05;1.67;;;23.60;38.40;;;;;;5025413;28;20111;-58
2021/11/06 05:55:21;;;;;;;1.80;1.70;;;23.60;38.50;;;;;;5025219;28;20139;-57
2021/11/06 05:57:48;;;;;;;2.20;1.73;;;23.60;38.50;;;;;;5021651;28;20072;-58
2021/11/06 06:00:18;;;;;;;1.92;1.83;;;23.60;38.50;;;;;;5024046;28;20639;-57
2021/11/06 06:02:45;;;;;;;;;;;23.60;38.40;;;;;;5025697;28;20049;-57
2021/11/06 06:05:13;;;;;;;1.95;1.73;;;23.60;38.40;;;;;;5025339;28;20007;-57
2021/11/06 06:07:41;;;;;;;3.45;1.95;;;23.60;38.40;;;;;;5024798;28;20138;-57
2021/11/06 06:10:11;;;;;;;2.05;1.70;;;23.60;38.30;;;;;;5029336;28;20172;-57
2021/11/06 06:12:39;;;;;;;1.85;1.63;;;23.70;38.20;;;;;;5025162;28;20140;-57
2021/11/06 06:15:08;;;;;;;1.70;1.58;;;23.70;38.10;;;;;;5024986;28;20071;-59
2021/11/06 06:17:37;;;;;;;1.85;1.63;;;23.70;38.00;;;;;;5025586;28;20056;-57
2021/11/06 06:20:10;;;;;;;2.22;1.70;;;23.70;37.90;;;;;;5018234;28;20087;-58
2021/11/06 06:22:39;;;;;;;2.05;1.85;;;23.80;37.90;;;;;;5025542;28;20159;-57
2021/11/06 06:25:07;;;;;;;1.60;1.50;;;23.80;37.70;;;;;;5024573;28;20072;-57
2021/11/06 06:27:34;;;;;;;1.85;1.52;;;23.80;37.60;;;;;;5025332;28;20466;-58
2021/11/06 06:30:03;;;;;;;1.58;1.48;;;23.80;37.50;;;;;;5022714;28;20053;-57
2021/11/06 06:32:30;;;;;;;2.03;1.80;;;23.90;37.30;;;;;;5024827;28;20080;-57
2021/11/06 06:34:57;;;;;;;2.05;1.67;;;23.90;37.20;;;;;;5023949;28;20045;-58
2021/11/06 06:37:24;;;;;;;1.98;1.80;;;23.90;37.10;;;;;;5025016;28;20122;-58
2021/11/06 06:39:51;;;;;;;2.50;2.30;;;24.00;37.50;;;;;;5015781;28;20074;-57
2021/11/06 06:42:20;;;;;;;2.00;1.90;;;24.00;36.90;;;;;;5024604;28;20356;-58
2021/11/06 06:44:50;;;;;;;2.83;2.35;;;24.10;36.80;;;;;;5024135;28;20082;-57
2021/11/06 06:47:18;;;;;;;2.55;2.25;;;24.10;36.70;;;;;;5024499;28;20506;-58
2021/11/06 06:49:46;;;;;;;2.33;2.13;;;24.20;36.60;;;;;;5024314;28;20145;-57
2021/11/06 06:52:14;;;;;;;1.95;1.85;;;24.20;36.50;;;;;;5024383;28;20088;-58
2021/11/06 06:54:42;;;;;;;3.10;2.33;;;24.30;36.40;;;;;;5022620;28;20471;-58
2021/11/06 06:57:09;;;;;;;2.50;2.30;;;24.30;36.30;;;;;;5024613;28;20502;-58
2021/11/06 06:59:36;;;;;;;2.35;2.15;;;24.30;36.20;;;;;;5021994;28;20537;-58
2021/11/06 07:02:06;;;;;;;2.78;2.40;;;24.40;36.10;;;;;;5022919;28;20045;-57
2021/11/06 07:04:33;;;;;;;5.15;3.28;;;24.40;36.10;;;;;;5023691;28;20179;-57
2021/11/06 07:07:01;;;;;;;3.63;3.20;;;24.40;36.10;;;;;;5024078;28;20513;-57
2021/11/06 07:09:30;;;;;;;3.30;3.00;;;24.40;36.10;;;;;;5032181;28;20166;-58
2021/11/06 07:11:57;;;;;;;3.20;2.90;;;24.40;36.10;;;;;;5043990;28;20052;-58
2021/11/06 07:14:25;;;;;;;3.65;2.95;;;24.40;36.10;;;;;;5038163;28;20126;-57
2021/11/06 07:16:52;;;;;;;3.88;3.22;;;24.30;36.00;;;;;;5023465;28;20482;-58
2021/11/06 07:19:19;;;;;;;3.35;3.05;;;24.30;36.00;;;;;;5015688;28;20076;-58
2021/11/06 07:21:47;;;;;;;3.10;2.78;;;24.30;36.60;;;;;;5022302;28;20466;-58
2021/11/06 07:24:14;;;;;;;3.17;2.88;;;24.30;36.00;;;;;;5023842;28;20049;-58
2021/11/06 07:26:41;;;;;;;3.45;3.03;;;24.30;36.00;;;;;;5023831;28;20095;-57
2021/11/06 07:29:08;;;;;;;3.20;2.90;;;24.30;36.00;;;;;;5027636;28;20115;-58
2021/11/06 07:31:35;;;;;;;3.58;3.28;;;24.30;36.00;;;;;;5023903;28;20127;-58
2021/11/06 07:34:03;;;;;;;2.55;2.35;;;24.20;35.90;;;;;;5023959;28;20522;-57
2021/11/06 07:36:30;;;;;;;2.97;2.55;;;24.20;35.90;;;;;;5024900;28;20048;-58
2021/11/06 07:38:57;;;;;;;3.47;3.00;;;24.20;35.90;;;;;;5023050;28;20417;-57
2021/11/06 07:41:25;;;;;;;3.35;3.05;;;24.20;35.90;;;;;;5043945;28;20052;-58
2021/11/06 07:43:54;;;;;;;3.17;2.88;;;24.30;36.00;;;;;;5043739;28;20099;-58
2021/11/06 07:46:21;;;;;;;2.55;2.35;;;24.20;35.80;;;;;;5043328;28;20048;-59
2021/11/06 07:48:50;;;;;;;3.22;2.92;;;24.30;35.90;;;;;;5035406;28;20148;-57
2021/11/06 07:51:17;;;;;;;2.85;2.60;;;24.30;35.90;;;;;;5023450;28;20145;-58
2021/11/06 07:53:46;;;;;;;2.78;2.50;;;24.30;35.90;;;;;;5029019;28;20150;-58
2021/11/06 07:56:13;;;;;;;2.50;2.30;;;24.30;35.80;;;;;;5028858;28;20106;-58
2021/11/06 07:58:41;;;;;;;2.85;2.65;;;24.30;35.80;;;;;;5022847;28;20156;-58
2021/11/06 08:01:08;;;;;;;2.83;2.38;;;24.30;35.70;;;;;;5026503;28;20053;-57
2021/11/06 08:03:35;;;;;;;2.75;2.28;;;24.30;35.70;;;;;;5029113;28;20114;-58
2021/11/06 08:06:04;;;;;;;2.17;2.08;;;24.30;35.60;;;;;;5027074;28;20080;-58
2021/11/06 08:08:31;;;;;;;2.58;2.38;;;24.30;35.60;;;;;;5026096;28;20532;-57
2021/11/06 08:10:59;;;;;;;2.50;2.30;;;24.30;35.60;;;;;;5025744;28;20126;-57
2021/11/06 08:13:28;;;;;;;2.10;2.00;;;24.30;35.70;;;;;;5028504;28;20053;-58
2021/11/06 08:15:56;;;;;;;2.42;2.22;;;24.30;35.60;;;;;;5026769;28;20284;-58
2021/11/06 08:18:24;;;;;;;2.30;2.10;;;24.30;35.50;;;;;;5007013;28;20577;-58
2021/11/06 08:20:51;;;;;;;2.50;2.30;;;24.30;35.50;;;;;;5025950;28;20148;-57
2021/11/06 08:23:18;;;;;;;2.38;2.17;;;24.40;35.40;;;;;;5028291;28;20525;-58
2021/11/06 08:25:47;;;;;;;2.30;2.00;;;24.40;35.40;;;;;;5026559;28;20144;-57
2021/11/06 08:28:15;;;;;;;2.40;2.10;;;24.40;35.30;;;;;;5026261;28;20144;-58
2021/11/06 08:30:42;;;;;;;2.53;2.25;;;24.40;35.30;;;;;;5036770;28;20058;-58
2021/11/06 08:33:10;;;;;;;2.17;1.98;;;24.40;35.30;;;;;;5048148;28;20599;-57
2021/11/06 08:35:40;;;;;;;2.08;1.88;;;24.50;35.20;;;;;;5047751;28;20179;-57
2021/11/06 08:38:07;;;;;;;;;;;24.50;35.20;;;;;;5045067;28;20067;-57
2021/11/06 08:40:35;;;;;;;2.05;1.85;;;24.50;35.10;;;;;;5037342;28;20378;-58
2021/11/06 08:43:03;;;;;;;2.00;1.90;;;24.50;35.10;;;;;;5046983;28;20056;-58
2021/11/06 08:45:30;;;;;;;1.95;1.65;;;24.50;35.10;;;;;;5048361;28;20548;-58
2021/11/06 08:47:57;;;;;;;1.88;1.77;;;24.50;35.00;;;;;;5041514;28;20456;-57
2021/11/06 08:50:27;;;;;;;2.08;1.73;;;24.50;35.00;;;;;;5023667;28;20484;-58
2021/11/06 08:52:55;;;;;;;1.75;1.65;;;24.50;35.00;;;;;;5027140;28;20167;-57
2021/11/06 08:55:22;;;;;;;1.50;1.40;;;24.50;35.00;;;;;;5028099;28;20045;-58
2021/11/06 08:57:54;;;;;;;1.40;1.30;;;24.50;34.90;;;;;;5024988;28;20048;-57
2021/11/06 09:00:34;;;;;;;1.80;1.70;;;24.60;35.00;;;;;;5026957;28;20139;-58
2021/11/06 09:03:06;;;;;;;1.50;1.40;;;24.60;34.90;;;;;;5026299;28;20304;-57
2021/11/06 09:05:34;;;;;;;1.30;1.20;;;24.60;34.80;;;;;;5026235;28;20453;-58
2021/11/06 09:08:22;;;;;;;1.63;1.42;;;24.60;34.80;;;;;;5024283;28;20350;-57
2021/11/06 09:10:50;;;;;;;1.67;1.58;;;24.70;34.80;;;;;;5025135;28;20549;-57
2021/11/06 09:13:17;;;;;;;1.73;1.63;;;24.60;34.60;;;;;;5027465;28;20159;-57
2021/11/06 09:15:44;;;;;;;1.38;1.30;;;24.70;34.70;;;;;;5027126;28;20084;-57
2021/11/06 09:18:11;;;;;;;1.60;1.50;;;24.70;34.60;;;;;;5025022;28;20061;-57
2021/11/06 09:20:39;;;;;;;1.42;1.33;;;24.70;34.70;;;;;;5022018;28;20132;-58
2021/11/06 09:23:06;;;;;;;1.52;1.42;;;24.70;34.60;;;;;;5026933;28;20048;-58
2021/11/06 09:25:33;;;;;;;1.70;1.60;;;24.70;34.60;;;;;;5027376;28;20049;-57
2021/11/06 09:28:01;;;;;;;1.55;1.45;;;24.70;34.60;;;;;;5025743;28;20055;-57
2021/11/06 09:30:29;;;;;;;1.13;1.13;;;24.70;34.50;;;;;;5025985;28;20064;-57
2021/11/06 09:32:56;;;;;;;1.20;1.10;;;24.70;34.50;;;;;;5027040;28;20604;-57
2021/11/06 09:35:23;;;;;;;1.20;1.20;;;24.70;34.50;;;;;;5027137;28;20057;-58
2021/11/06 09:37:50;;;;;;;1.00;1.00;;;24.70;34.50;;;;;;5022857;28;20053;-59
2021/11/06 09:40:18;;;;;;;1.70;1.50;;;24.70;35.00;;;;;;5027759;28;20147;-57
2021/11/06 09:42:45;;;;;;;1.15;1.15;;;24.70;34.40;;;;;;5026654;28;20133;-58
2021/11/06 09:45:14;;;;;;;1.45;1.35;;;24.80;34.40;;;;;;5025597;28;20088;-57
2021/11/06 09:47:45;;;;;;;1.33;1.23;;;24.80;34.40;;;;;;5023869;28;20049;-58
2021/11/06 09:50:17;;;;;;;1.00;1.00;;;24.80;34.30;;;;;;5029965;28;20326;-58
2021/11/06 09:52:46;;;;;;;1.13;1.10;;;24.90;34.30;;;;;;5046517;28;20048;-58
2021/11/06 09:55:16;;;;;;;1.17;1.10;;;24.90;34.20;;;;;;5046527;28;20189;-58
2021/11/06 09:57:44;;;;;;;1.10;1.10;;;24.90;34.10;;;;;;5045296;28;20143;-57
2021/11/06 10:00:13;;;;;;;1.00;1.00;;;24.90;34.10;;;;;;5039147;28;20126;-58
2021/11/06 10:02:41;;;;;;;1.10;1.10;;;24.90;34.00;;;;;;5046638;28;20162;-58
2021/11/06 10:05:11;;;;;;;1.10;1.10;;;24.90;34.00;;;;;;5044809;28;20052;-58
2021/11/06 10:07:39;;;;;;;1.17;1.08;;;24.90;33.90;;;;;;5045606;28;20316;-58
2021/11/06 10:10:14;;;;;;;1.17;1.10;;;24.90;33.90;;;;;;5027186;28;20064;-58
2021/11/06 10:12:51;;;;;;;1.20;0.90;;;24.90;34.00;;;;;;5045619;28;20382;-57
2021/11/06 10:15:21;;;;;;;0.85;0.85;;;24.90;33.90;;;;;;5046066;28;20076;-57
2021/11/06 10:17:49;;;;;;;0.98;0.90;;;25.00;34.00;;;;;;5041523;28;20319;-57
2021/11/06 10:20:33;;;;;;;1.10;1.10;;;24.90;33.90;;;;;;5026187;28;20049;-57
2021/11/06 10:23:03;;;;;;;0.80;0.80;;;24.90;33.90;;;;;;5025608;28;20049;-58
2021/11/06 10:25:32;;;;;;;1.10;1.00;;;25.00;33.90;;;;;;5026547;28;20405;-57
2021/11/06 10:28:03;;;;;;;1.05;0.85;;;25.00;33.90;;;;;;5025029;28;20118;-57
2021/11/06 10:30:39;;;;;;;1.00;0.90;;;25.00;33.80;;;;;;5029932;28;20210;-57
2021/11/06 10:33:18;;;;;;;0.52;0.52;;;25.10;33.80;;;;;;5025644;28;20128;-58
2021/11/06 10:35:49;;;;;;;0.75;0.75;;;25.10;33.70;;;;;;5025761;28;20053;-57
2021/11/06 10:38:21;;;;;;;0.80;0.80;;;25.10;33.70;;;;;;5022636;28;20099;-58
2021/11/06 10:40:52;;;;;;;1.40;1.30;;;25.10;33.60;;;;;;5016967;28;20613;-57
2021/11/06 10:43:22;;;;;;;1.15;1.10;;;25.20;33.60;;;;;;5025129;28;20526;-57
2021/11/06 10:45:54;;;;;;;;;;;25.20;33.60;;;;;;5026582;28;20084;-58
2021/11/06 10:48:26;;;;;;;0.70;0.70;;;25.30;33.60;;;;;;5022496;28;20024;-58
2021/11/06 10:51:04;;;;;;;0.80;0.80;;;25.30;33.50;;;;;;5022076;28;20542;-58
2021/11/06 10:53:53;;;;;;;0.70;0.70;;;25.30;33.50;;;;;;5025783;28;20522;-57
2021/11/06 10:56:24;;;;;;;1.08;0.98;;;25.30;33.50;;;;;;5025894;28;20131;-58
2021/11/06 10:58:53;;;;;;;0.95;0.93;;;25.40;33.50;;;;;;5023726;28;20048;-59
2021/11/06 11:01:25;;;;;;;0.82;0.82;;;25.30;33.50;;;;;;5042662;28;20066;-58
2021/11/06 11:03:59;;;;;;;0.88;0.70;;;25.40;33.50;;;;;;5044587;28;20131;-58
2021/11/06 11:06:32;;;;;;;0.93;0.93;;;25.40;33.50;;;;;;5045543;28;20131;-58
2021/11/06 11:08:59;;;;;;;0.82;0.82;;;25.40;33.40;;;;;;5028280;28;20084;-58
2021/11/06 11:11:31;;;;;;;0.60;0.60;;;25.40;33.40;;;;;;5006889;28;20067;-58
2021/11/06 11:14:02;;;;;;;0.65;0.65;;;25.40;33.40;;;;;;5024893;28;20045;-58
2021/11/06 11:16:30;;;;;;;0.95;0.73;;;25.40;33.30;;;;;;5025000;28;20167;-57
2021/11/06 11:19:09;;;;;;;1.00;0.77;;;25.40;33.30;;;;;;5018841;28;20103;-58
2021/11/06 11:21:43;;;;;;;0.90;0.90;;;25.40;33.30;;;;;;5025360;28;20053;-58
2021/11/06 11:24:13;;;;;;;0.60;0.60;;;25.40;33.30;;;;;;5024674;28;20127;-58
2021/11/06 11:26:45;;;;;;;0.52;0.52;;;25.30;33.20;;;;;;5024538;28;20129;-58
2021/11/06 11:29:18;;;;;;;0.82;0.82;;;25.40;33.30;;;;;;5017195;28;20075;-58
2021/11/06 11:31:46;;;;;;;0.60;0.60;;;25.40;33.30;;;;;;5025351;28;20080;-57
2021/11/06 11:34:13;;;;;;;0.80;0.80;;;25.40;33.30;;;;;;5025134;28;20402;-57
2021/11/06 11:36:43;;;;;;;0.70;0.70;;;25.30;33.20;;;;;;5025298;28;20132;-57
2021/11/06 11:39:16;;;;;;;0.40;0.40;;;25.40;33.20;;;;;;5026857;28;20590;-58
2021/11/06 11:42:19;;;;;;;0.80;0.80;;;25.40;33.20;;;;;;5025303;28;20700;-57
2021/11/06 11:45:27;;;;;;;0.68;0.68;;;25.40;33.20;;;;;;5023709;28;20052;-58
2021/11/06 11:48:06;;;;;;;0.75;0.75;;;25.40;33.20;;;;;;5021646;28;20149;-57
2021/11/06 11:50:36;;;;;;;0.70;0.70;;;25.30;33.30;;;;;;5019424;28;20084;-57
2021/11/06 11:53:07;;;;;;;0.82;0.82;;;25.30;33.30;;;;;;5021837;28;20159;-58
2021/11/06 11:55:45;;;;;;;0.32;0.32;;;25.30;33.30;;;;;;5018266;28;20044;-58
2021/11/06 11:58:25;;;;;;;0.40;0.40;;;25.30;33.30;;;;;;5006619;28;20550;-57
2021/11/06 12:00:55;;;;;;;0.65;0.65;;;25.30;33.30;;;;;;5015652;28;20590;-58
2021/11/06 12:03:45;;;;;;;0.60;0.52;;;25.30;33.40;;;;;;5010853;28;20468;-58
2021/11/06 12:06:25;;;;;;;0.52;0.52;;;25.30;33.40;;;;;;5016596;28;20049;-58
2021/11/06 12:08:57;;;;;;;0.50;0.50;;;25.30;33.30;;;;;;5016757;28;20844;-58
2021/11/06 12:11:30;;;;;;;0.50;0.50;;;25.30;33.40;;;;;;5023289;28;20131;-57
2021/11/06 12:14:00;;;;;;;0.68;0.60;;;25.30;33.30;;;;;;5022406;28;20045;-58
2021/11/06 12:16:55;;;;;;;0.50;0.50;;;25.30;33.40;;;;;;5024509;28;20080;-58
2021/11/06 12:19:36;;;;;;;0.82;0.82;;;25.30;33.40;;;;;;5016851;28;20344;-58
2021/11/06 12:22:15;;;;;;;1.65;0.70;;;25.30;33.30;;;;;;5014788;28;20434;-57
2021/11/06 12:24:45;;;;;;;0.60;0.60;;;25.30;33.20;;;;;;5017665;28;20056;-58
2021/11/06 12:27:14;;;;;;;0.47;0.47;;;25.30;33.30;;;;;;5024111;28;20461;-58
2021/11/06 12:29:54;;;;;;;0.47;0.47;;;25.30;33.20;;;;;;5015096;28;20049;-58
2021/11/06 12:32:30;;;;;;;0.63;0.63;;;25.30;33.20;;;;;;5011044;28;20587;-58
2021/11/06 12:35:19;;;;;;;0.40;0.40;;;25.30;33.20;;;;;;5014220;28;20056;-58
2021/11/06 12:37:48;;;;;;;0.45;0.45;;;25.30;33.20;;;;;;5024964;28;20081;-58
2021/11/06 12:40:23;;;;;;;0.50;0.50;;;25.30;33.20;;;;;;5028932;28;20057;-57
2021/11/06 12:43:16;;;;;;;0.40;0.40;;;25.30;33.10;;;;;;5032037;28;20045;-58
2021/11/06 12:45:47;;;;;;;0.45;0.45;;;25.30;33.20;;;;;;5027837;28;20128;-58
2021/11/06 12:48:33;;;;;;;0.63;0.47;;;25.20;33.10;;;;;;5022219;28;20053;-59
2021/11/06 12:51:08;;;;;;;0.40;0.40;;;25.30;33.20;;;;;;5025426;28;20141;-57
2021/11/06 12:53:38;;;;;;;0.50;0.50;;;25.20;33.10;;;;;;5028065;28;20146;-58
2021/11/06 12:56:11;;;;;;;;;;;25.20;33.10;;;;;;5028045;28;20135;-58
2021/11/06 12:58:40;;;;;;;0.60;0.60;;;25.20;33.00;;;;;;5020712;28;19935;-57